createdAt,value
2022-08-14T00:02:03.784Z,29.56
2022-08-14T00:04:45.368Z,29.56
2022-08-14T00:07:16.180Z,29.57
2022-08-14T00:09:56.224Z,29.53
2022-08-14T00:12:56.825Z,29.56
2022-08-14T00:15:44.371Z,29.54
2022-08-14T00:19:05.267Z,29.55
2022-08-14T00:21:28.215Z,29.54
2022-08-14T00:24:04.769Z,29.54
2022-08-14T00:26:49.227Z,29.54
2022-08-14T00:29:40.335Z,29.52
2022-08-14T00:32:51.703Z,29.53
2022-08-14T00:35:20.126Z,29.52
2022-08-14T00:37:59.376Z,29.53
2022-08-14T00:40:36.310Z,29.53
2022-08-14T00:43:12.642Z,29.52
2022-08-14T00:45:52.578Z,29.54
2022-08-14T00:48:34.710Z,29.52
2022-08-14T00:51:16.531Z,29.54
2022-08-14T00:53:56.758Z,29.51
2022-08-14T00:56:33.879Z,29.53
2022-08-14T00:59:16.659Z,29.52
2022-08-14T01:01:52.697Z,29.52
2022-08-14T01:04:54.478Z,29.51
2022-08-14T01:07:53.915Z,29.51
2022-08-14T01:10:49.558Z,29.49
2022-08-14T01:13:42.646Z,29.49
2022-08-14T01:16:26.300Z,29.49
2022-08-14T01:19:14.483Z,29.50
2022-08-14T01:21:58.401Z,29.57
2022-08-14T01:24:36.483Z,29.60
2022-08-14T01:27:16.177Z,29.54
2022-08-14T01:29:59.035Z,29.54
2022-08-14T01:32:42.716Z,29.51
2022-08-14T01:36:05.172Z,29.50
2022-08-14T01:38:16.551Z,29.52
2022-08-14T01:40:53.199Z,29.50
2022-08-14T01:43:39.727Z,29.51
2022-08-14T01:46:24.349Z,29.48
2022-08-14T01:49:04.311Z,29.47
2022-08-14T01:51:44.519Z,29.48
2022-08-14T01:54:24.017Z,29.47
2022-08-14T01:57:14.437Z,29.48
2022-08-14T01:59:54.607Z,29.47
2022-08-14T02:02:30.836Z,29.46
2022-08-14T02:05:21.525Z,29.47
2022-08-14T02:08:08.731Z,29.45
2022-08-14T02:11:08.471Z,29.46
2022-08-14T02:13:39.983Z,29.43
2022-08-14T02:16:22.969Z,29.45
2022-08-14T02:19:02.025Z,29.44
2022-08-14T02:21:43.341Z,29.45
2022-08-14T02:24:38.704Z,29.43
2022-08-14T02:28:24.170Z,29.43
2022-08-14T02:30:05.818Z,29.43
2022-08-14T02:32:50.252Z,29.44
2022-08-14T02:35:32.721Z,29.46
2022-08-14T02:38:11.850Z,29.45
2022-08-14T02:41:14.626Z,29.44
2022-08-14T02:44:00.987Z,29.45
2022-08-14T02:46:49.683Z,29.45
2022-08-14T02:49:27.447Z,29.44
2022-08-14T02:52:16.049Z,29.43
2022-08-14T02:55:10.421Z,29.42
2022-08-14T02:57:51.845Z,29.40
2022-08-14T03:00:35.591Z,29.40
2022-08-14T03:03:14.623Z,29.40
2022-08-14T03:05:46.783Z,29.39
2022-08-14T03:08:33.289Z,29.39
2022-08-14T03:11:07.735Z,29.38
2022-08-14T03:13:47.418Z,29.40
2022-08-14T03:16:35.786Z,29.38
2022-08-14T03:19:14.091Z,29.40
2022-08-14T03:21:47.254Z,29.38
2022-08-14T03:24:24.624Z,29.38
2022-08-14T03:27:04.463Z,29.44
2022-08-14T03:29:45.412Z,29.49
2022-08-14T03:32:20.442Z,29.47
2022-08-14T03:35:10.871Z,29.45
2022-08-14T03:39:10.728Z,29.44
2022-08-14T03:40:40.882Z,29.43
2022-08-14T03:43:14.816Z,29.43
2022-08-14T03:45:55.104Z,29.39
2022-08-14T03:48:31.939Z,29.40
2022-08-14T03:51:17.614Z,29.40
2022-08-14T03:53:51.846Z,29.40
2022-08-14T03:56:27.293Z,29.38
2022-08-14T03:59:17.616Z,29.37
2022-08-14T04:02:01.278Z,29.39
2022-08-14T04:04:40.269Z,29.38
2022-08-14T04:07:21.730Z,29.37
2022-08-14T04:09:55.519Z,29.36
2022-08-14T04:12:37.036Z,29.33
2022-08-14T04:15:21.202Z,29.30
2022-08-14T04:18:00.557Z,29.28
2022-08-14T04:20:31.513Z,29.29
2022-08-14T04:23:18.397Z,29.25
2022-08-14T04:25:55.856Z,29.26
2022-08-14T04:29:07.408Z,29.26
2022-08-14T04:33:10.490Z,29.24
2022-08-14T04:34:28.130Z,29.24
2022-08-14T04:37:24.925Z,29.23
2022-08-14T04:40:17.079Z,29.23
2022-08-14T04:43:08.659Z,29.22
2022-08-14T04:45:51.131Z,29.21
2022-08-14T04:48:38.886Z,29.23
2022-08-14T04:51:19.056Z,29.24
2022-08-14T04:53:56.786Z,29.25
2022-08-14T04:56:35.946Z,29.25
2022-08-14T04:59:13.580Z,29.25
2022-08-14T05:01:56.774Z,29.23
2022-08-14T05:04:33.941Z,29.23
2022-08-14T05:07:46.975Z,29.22
2022-08-14T05:10:32.209Z,29.23
2022-08-14T05:13:24.844Z,29.22
2022-08-14T05:16:05.950Z,29.25
2022-08-14T05:19:24.745Z,29.25
2022-08-14T05:22:00.579Z,29.24
2022-08-14T05:24:55.103Z,29.25
2022-08-14T05:27:35.321Z,29.25
2022-08-14T05:30:12.248Z,29.21
2022-08-14T05:32:54.494Z,29.19
2022-08-14T05:35:27.386Z,29.20
2022-08-14T05:38:11.048Z,29.18
2022-08-14T05:41:18.907Z,29.20
2022-08-14T05:43:52.475Z,29.17
2022-08-14T05:46:30.547Z,29.18
2022-08-14T05:49:01.207Z,29.18
2022-08-14T05:51:34.900Z,29.16
2022-08-14T05:54:27.090Z,29.17
2022-08-14T05:57:04.672Z,29.21
2022-08-14T05:59:42.032Z,29.18
2022-08-14T06:02:17.748Z,29.18
2022-08-14T06:04:58.712Z,29.18
2022-08-14T06:07:40.520Z,29.20
2022-08-14T06:10:19.074Z,29.20
2022-08-14T06:13:03.447Z,29.19
2022-08-14T06:15:43.833Z,29.21
2022-08-14T06:18:17.565Z,29.21
2022-08-14T06:20:57.162Z,29.22
2022-08-14T06:23:33.091Z,29.24
2022-08-14T06:26:12.135Z,29.26
2022-08-14T06:28:51.976Z,29.29
2022-08-14T06:31:29.964Z,29.27
2022-08-14T06:35:11.452Z,29.29
2022-08-14T06:37:04.654Z,29.27
2022-08-14T06:39:44.448Z,29.29
2022-08-14T06:42:32.901Z,29.34
2022-08-14T06:45:10.279Z,29.34
2022-08-14T06:47:52.291Z,29.36
2022-08-14T06:50:30.516Z,29.38
2022-08-14T06:53:09.505Z,29.38
2022-08-14T06:55:57.942Z,29.40
2022-08-14T06:58:35.884Z,29.42
2022-08-14T07:01:28.115Z,29.45
2022-08-14T07:04:24.222Z,29.50
2022-08-14T07:06:59.035Z,29.50
2022-08-14T07:09:43.732Z,29.56
2022-08-14T07:12:54.619Z,29.53
2022-08-14T07:15:28.828Z,29.53
2022-08-14T07:18:23.572Z,29.54
2022-08-14T07:20:58.178Z,29.57
2022-08-14T07:23:28.164Z,29.57
2022-08-14T07:26:10.797Z,29.58
2022-08-14T07:28:49.237Z,29.60
2022-08-14T07:31:28.121Z,29.60
2022-08-14T07:34:11.428Z,29.62
2022-08-14T07:36:58.224Z,29.64
2022-08-14T07:39:43.518Z,29.65
2022-08-14T07:42:22.696Z,29.67
2022-08-14T07:44:58.485Z,29.69
2022-08-14T07:47:37.547Z,29.72
2022-08-14T07:50:20.148Z,29.72
2022-08-14T07:53:00.531Z,29.73
2022-08-14T07:56:00.521Z,29.74
2022-08-14T07:58:52.659Z,29.76
2022-08-14T08:01:26.183Z,29.76
2022-08-14T08:04:03.475Z,29.77
2022-08-14T08:06:41.253Z,29.80
2022-08-14T08:09:34.080Z,29.82
2022-08-14T08:12:15.897Z,29.85
2022-08-14T08:14:56.102Z,29.84
2022-08-14T08:17:35.051Z,29.84
2022-08-14T08:20:20.861Z,29.88
2022-08-14T08:23:00.284Z,29.88
2022-08-14T08:25:50.572Z,29.87
2022-08-14T08:28:31.549Z,29.90
2022-08-14T08:31:16.078Z,29.90
2022-08-14T08:34:14.247Z,29.92
2022-08-14T08:36:49.293Z,29.93
2022-08-14T08:39:42.226Z,29.95
2022-08-14T08:42:38.415Z,29.96
2022-08-14T08:45:20.153Z,29.97
2022-08-14T08:47:58.752Z,29.97
2022-08-14T08:53:21.746Z,30.00
2022-08-14T08:56:00.307Z,30.03
2022-08-14T08:58:40.642Z,29.99
2022-08-14T09:01:19.465Z,30.01
2022-08-14T09:04:01.305Z,30.04
2022-08-14T09:07:01.644Z,30.05
2022-08-14T09:09:59.860Z,30.04
2022-08-14T09:12:36.876Z,30.03
2022-08-14T09:15:16.217Z,30.03
2022-08-14T09:17:58.330Z,30.05
2022-08-14T09:20:37.321Z,30.03
2022-08-14T09:23:12.623Z,30.06
2022-08-14T09:26:00.925Z,30.05
2022-08-14T09:28:34.611Z,30.06
2022-08-14T09:31:17.803Z,30.06
2022-08-14T09:34:19.703Z,30.06
2022-08-14T09:37:36.245Z,30.07
2022-08-14T09:40:21.721Z,30.08
2022-08-14T09:43:20.096Z,30.12
2022-08-14T09:46:02.848Z,30.13
2022-08-14T09:48:41.564Z,30.15
2022-08-14T09:51:33.069Z,30.14
2022-08-14T09:54:24.253Z,30.15
2022-08-14T09:57:01.470Z,30.15
2022-08-14T09:59:50.415Z,30.14
2022-08-14T10:02:32.097Z,30.14
2022-08-14T10:05:11.803Z,30.15
2022-08-14T10:07:58.907Z,30.16
2022-08-14T10:10:43.435Z,30.17
2022-08-14T10:13:52.762Z,30.18
2022-08-14T10:16:50.560Z,30.17
2022-08-14T10:19:25.613Z,30.17
2022-08-14T10:23:13.222Z,30.18
2022-08-14T10:25:16.614Z,30.19
2022-08-14T10:28:03.927Z,30.23
2022-08-14T10:30:48.910Z,30.30
2022-08-14T10:33:36.535Z,30.33
2022-08-14T10:36:34.509Z,30.34
2022-08-14T10:39:26.317Z,30.32
2022-08-14T10:42:18.393Z,30.33
2022-08-14T10:44:57.298Z,30.36
2022-08-14T10:48:07.468Z,30.37
2022-08-14T10:50:53.779Z,30.36
2022-08-14T10:53:39.324Z,30.33
2022-08-14T10:56:35.716Z,30.33
2022-08-14T10:59:08.797Z,30.32
2022-08-14T11:01:50.148Z,30.34
2022-08-14T11:04:35.476Z,30.31
2022-08-14T11:07:16.883Z,30.29
2022-08-14T11:10:04.545Z,30.29
2022-08-14T11:12:59.335Z,30.27
2022-08-14T11:15:29.580Z,30.28
2022-08-14T11:18:05.472Z,30.29
2022-08-14T11:20:54.303Z,30.27
2022-08-14T11:23:46.907Z,30.27
2022-08-14T11:26:29.993Z,30.35
2022-08-14T11:29:08.865Z,30.41
2022-08-14T11:31:51.733Z,30.41
2022-08-14T11:34:33.518Z,30.39
2022-08-14T11:37:24.822Z,30.34
2022-08-14T11:40:29.463Z,30.31
2022-08-14T11:43:09.914Z,30.32
2022-08-14T11:45:50.377Z,30.32
2022-08-14T11:49:03.153Z,30.33
2022-08-14T11:51:36.236Z,30.32
2022-08-14T11:54:34.879Z,30.27
2022-08-14T11:57:19.802Z,30.27
2022-08-14T12:00:21.707Z,30.27
2022-08-14T12:03:11.015Z,30.28
2022-08-14T12:05:48.957Z,30.29
2022-08-14T12:08:35.567Z,30.27
2022-08-14T12:11:19.420Z,30.27
2022-08-14T12:13:57.354Z,30.25
2022-08-14T12:16:31.490Z,30.26
2022-08-14T12:19:15.927Z,30.24
2022-08-14T12:21:51.751Z,30.28
2022-08-14T12:24:40.169Z,30.25
2022-08-14T12:27:16.868Z,30.27
2022-08-14T12:29:57.224Z,30.27
2022-08-14T12:32:44.596Z,30.25
2022-08-14T12:35:23.356Z,30.23
2022-08-14T12:38:06.562Z,30.26
2022-08-14T12:40:57.115Z,30.24
2022-08-14T12:43:31.108Z,30.22
2022-08-14T12:46:22.314Z,30.20
2022-08-14T12:49:09.738Z,30.19
2022-08-14T12:52:02.926Z,30.21
2022-08-14T12:54:50.524Z,30.21
2022-08-14T12:57:49.413Z,30.20
2022-08-14T13:00:49.583Z,30.18
2022-08-14T13:03:36.504Z,30.17
2022-08-14T13:06:10.096Z,30.18
2022-08-14T13:08:53.600Z,30.15
2022-08-14T13:11:40.963Z,30.14
2022-08-14T13:14:26.083Z,30.15
2022-08-14T13:17:08.849Z,30.16
2022-08-14T13:19:47.056Z,30.14
2022-08-14T13:22:32.000Z,30.14
2022-08-14T13:25:06.979Z,30.16
2022-08-14T13:27:45.732Z,30.16
2022-08-14T13:30:27.453Z,30.13
2022-08-14T13:32:58.591Z,30.15
2022-08-14T13:35:43.139Z,30.17
2022-08-14T13:38:22.260Z,30.18
2022-08-14T13:41:03.243Z,30.15
2022-08-14T13:43:59.783Z,30.17
2022-08-14T13:46:37.227Z,30.15
2022-08-14T13:49:12.654Z,30.17
2022-08-14T13:51:59.198Z,30.16
2022-08-14T13:54:34.391Z,30.18
2022-08-14T13:57:11.667Z,30.12
2022-08-14T13:59:51.185Z,30.12
2022-08-14T14:02:33.759Z,30.12
2022-08-14T14:05:13.931Z,30.11
2022-08-14T14:07:56.930Z,30.13
2022-08-14T14:10:35.583Z,30.13
2022-08-14T14:13:20.880Z,30.13
2022-08-14T14:15:58.484Z,30.13
2022-08-14T14:18:46.220Z,30.14
2022-08-14T14:21:28.724Z,30.14
2022-08-14T14:24:01.866Z,30.16
2022-08-14T14:26:45.820Z,30.15
2022-08-14T14:29:28.374Z,30.15
2022-08-14T14:32:21.312Z,30.15
2022-08-14T14:35:04.564Z,30.15
2022-08-14T14:37:41.188Z,30.15
2022-08-14T14:40:50.350Z,30.19
2022-08-14T14:43:15.675Z,30.21
2022-08-14T14:45:54.589Z,30.20
2022-08-14T14:48:35.204Z,30.23
2022-08-14T14:51:08.474Z,30.22
2022-08-14T14:53:43.589Z,30.19
2022-08-14T14:56:51.986Z,30.18
2022-08-14T14:59:21.363Z,30.19
2022-08-14T15:02:08.105Z,30.19
2022-08-14T15:04:50.727Z,30.18
2022-08-14T15:07:29.682Z,30.19
2022-08-14T15:10:27.414Z,30.16
2022-08-14T15:13:05.460Z,30.18
2022-08-14T15:15:46.969Z,30.19
2022-08-14T15:18:39.314Z,30.21
2022-08-14T15:21:21.553Z,30.17
2022-08-14T15:24:00.852Z,30.17
2022-08-14T15:26:35.833Z,30.15
2022-08-14T15:29:15.311Z,30.18
2022-08-14T15:31:53.406Z,30.18
2022-08-14T15:34:43.367Z,30.16
2022-08-14T15:37:42.240Z,30.17
2022-08-14T15:40:22.488Z,30.20
2022-08-14T15:42:58.810Z,30.17
2022-08-14T15:45:34.437Z,30.16
2022-08-14T15:48:22.150Z,30.17
2022-08-14T15:51:04.899Z,30.17
2022-08-14T15:53:38.573Z,30.18
2022-08-14T15:56:43.176Z,30.19
2022-08-14T15:59:25.602Z,30.18
2022-08-14T16:02:02.724Z,30.18
2022-08-14T16:04:42.070Z,30.18
2022-08-14T16:07:26.935Z,30.18
2022-08-14T16:10:29.319Z,30.17
2022-08-14T16:13:02.664Z,30.17
2022-08-14T16:15:53.216Z,30.18
2022-08-14T16:18:36.609Z,30.17
2022-08-14T16:21:14.269Z,30.18
2022-08-14T16:23:54.077Z,30.16
2022-08-14T16:26:35.251Z,30.16
2022-08-14T16:29:19.133Z,30.16
2022-08-14T16:31:56.490Z,30.18
2022-08-14T16:34:45.703Z,30.19
2022-08-14T16:37:31.918Z,30.19
2022-08-14T16:40:10.980Z,30.17
2022-08-14T16:43:04.596Z,30.17
2022-08-14T16:45:43.761Z,30.17
2022-08-14T16:48:54.940Z,30.18
2022-08-14T16:51:28.248Z,30.17
2022-08-14T16:54:10.631Z,30.15
2022-08-14T16:57:21.522Z,30.12
2022-08-14T16:59:59.754Z,30.14
2022-08-14T17:02:49.764Z,30.14
2022-08-14T17:05:29.246Z,30.16
2022-08-14T17:08:41.555Z,30.14
2022-08-14T17:11:16.171Z,30.11
2022-08-14T17:14:00.433Z,30.11
2022-08-14T17:16:41.638Z,30.08
2022-08-14T17:19:19.613Z,30.07
2022-08-14T17:21:57.755Z,30.05
2022-08-14T17:24:56.934Z,30.04
2022-08-14T17:27:34.453Z,30.05
2022-08-14T17:30:32.629Z,30.02
2022-08-14T17:33:40.711Z,30.02
2022-08-14T17:36:24.462Z,30.03
2022-08-14T17:39:08.970Z,30.02
2022-08-14T17:42:01.703Z,30.03
2022-08-14T17:44:44.992Z,30.02
2022-08-14T17:47:26.994Z,30.02
2022-08-14T17:50:04.023Z,30.00
2022-08-14T17:53:09.375Z,30.02
2022-08-14T17:56:02.088Z,30.02
2022-08-14T17:58:41.968Z,29.99
2022-08-14T18:01:23.583Z,29.97
2022-08-14T18:04:25.016Z,29.96
2022-08-14T18:07:51.043Z,29.97
2022-08-14T18:10:32.241Z,29.95
2022-08-14T18:13:13.910Z,29.94
2022-08-14T18:15:51.141Z,29.96
2022-08-14T18:18:36.762Z,29.96
2022-08-14T18:21:41.987Z,29.95
2022-08-14T18:24:29.887Z,29.97
2022-08-14T18:27:28.934Z,29.98
2022-08-14T18:30:31.910Z,29.99
2022-08-14T18:33:01.999Z,29.96
2022-08-14T18:35:58.695Z,29.96
2022-08-14T18:38:45.676Z,29.99
2022-08-14T18:41:36.681Z,29.99
2022-08-14T18:44:14.030Z,29.98
2022-08-14T18:47:15.968Z,29.98
2022-08-14T18:49:55.706Z,29.99
2022-08-14T18:52:43.501Z,29.97
2022-08-14T18:55:28.521Z,29.97
2022-08-14T18:58:30.920Z,29.97
2022-08-14T19:01:26.865Z,29.97
2022-08-14T19:04:04.188Z,29.97
2022-08-14T19:06:56.685Z,29.97
2022-08-14T19:09:54.484Z,29.97
2022-08-14T19:12:57.777Z,29.99
2022-08-14T19:15:38.595Z,29.97
2022-08-14T19:18:30.408Z,29.96
2022-08-14T19:21:30.572Z,29.95
2022-08-14T19:24:29.333Z,29.97
2022-08-14T19:27:37.204Z,29.94
2022-08-14T19:30:19.760Z,29.95
2022-08-14T19:33:03.714Z,29.93
2022-08-14T19:36:28.824Z,29.94
2022-08-14T19:39:13.662Z,29.93
2022-08-14T19:41:58.207Z,29.93
2022-08-14T19:44:41.225Z,29.93
2022-08-14T19:47:12.373Z,29.92
2022-08-14T19:50:24.397Z,29.92
2022-08-14T19:52:47.606Z,29.92
2022-08-14T19:55:34.205Z,29.94
2022-08-14T19:58:13.063Z,29.93
2022-08-14T20:00:57.275Z,29.92
2022-08-14T20:04:00.090Z,29.90
2022-08-14T20:06:46.419Z,29.90
2022-08-14T20:11:08.565Z,29.89
2022-08-14T20:12:29.225Z,29.94
2022-08-14T20:15:11.027Z,29.92
2022-08-14T20:17:52.812Z,29.89
2022-08-14T20:20:31.721Z,29.91
2022-08-14T20:23:18.916Z,29.89
2022-08-14T20:25:59.333Z,29.88
2022-08-14T20:28:51.558Z,29.89
2022-08-14T20:31:37.172Z,29.91
2022-08-14T20:34:25.190Z,29.90
2022-08-14T20:37:22.083Z,29.91
2022-08-14T20:39:57.910Z,29.90
2022-08-14T20:42:59.350Z,29.90
2022-08-14T20:45:30.105Z,29.90
2022-08-14T20:48:12.072Z,29.91
2022-08-14T20:50:49.810Z,29.94
2022-08-14T20:53:31.585Z,29.97
2022-08-14T20:56:30.294Z,29.96
2022-08-14T20:59:21.334Z,29.96
2022-08-14T21:02:24.030Z,29.98
2022-08-14T21:05:16.008Z,29.95
2022-08-14T21:07:51.740Z,29.97
2022-08-14T21:10:44.477Z,29.97
2022-08-14T21:14:20.830Z,29.97
2022-08-14T21:16:35.074Z,29.95
2022-08-14T21:19:10.262Z,29.91
2022-08-14T21:21:54.870Z,29.93
2022-08-14T21:24:39.646Z,29.94
2022-08-14T21:27:23.498Z,29.95
2022-08-14T21:29:58.162Z,29.92
2022-08-14T21:32:47.248Z,29.91
2022-08-14T21:35:28.848Z,29.92
2022-08-14T21:38:01.976Z,29.91
2022-08-14T21:40:46.556Z,29.92
2022-08-14T21:43:32.823Z,29.92
2022-08-14T21:46:09.604Z,29.92
2022-08-14T21:48:50.913Z,29.92
2022-08-14T21:51:53.631Z,29.90
2022-08-14T21:54:32.139Z,29.92
2022-08-14T21:58:46.339Z,29.91
2022-08-14T22:00:47.265Z,29.94
2022-08-14T22:03:26.388Z,29.90
2022-08-14T22:06:11.631Z,29.91
2022-08-14T22:08:52.942Z,29.92
2022-08-14T22:11:29.925Z,29.91
2022-08-14T22:14:26.190Z,29.91
2022-08-14T22:17:12.999Z,29.90
2022-08-14T22:19:54.736Z,29.92
2022-08-14T22:22:33.340Z,29.93
2022-08-14T22:25:18.046Z,29.94
2022-08-14T22:28:02.706Z,29.97
2022-08-14T22:30:41.699Z,30.04
2022-08-14T22:33:20.672Z,30.02
2022-08-14T22:36:27.173Z,30.02
2022-08-14T22:39:12.755Z,30.00
2022-08-14T22:41:55.781Z,30.03
2022-08-14T22:44:37.275Z,30.03
2022-08-14T22:47:15.992Z,29.99
2022-08-14T22:50:30.275Z,30.00
2022-08-14T22:52:55.622Z,30.02
2022-08-14T22:55:31.455Z,29.98
2022-08-14T22:58:17.201Z,29.97
2022-08-14T23:01:06.582Z,29.98
2022-08-14T23:03:45.350Z,29.98
2022-08-14T23:07:02.763Z,29.96
2022-08-14T23:09:38.588Z,29.98
2022-08-14T23:12:28.363Z,29.95
2022-08-14T23:15:09.249Z,29.93
2022-08-14T23:17:47.472Z,29.95
2022-08-14T23:20:22.175Z,29.96
2022-08-14T23:22:59.186Z,29.94
2022-08-14T23:25:59.311Z,29.93
2022-08-14T23:28:58.524Z,29.95
2022-08-14T23:31:36.398Z,29.92
2022-08-14T23:34:29.518Z,29.92
2022-08-14T23:37:04.964Z,29.93
2022-08-14T23:39:35.558Z,29.92
2022-08-14T23:42:17.863Z,29.92
2022-08-14T23:44:53.410Z,29.90
2022-08-14T23:47:31.602Z,29.91
2022-08-14T23:50:34.426Z,29.92
2022-08-14T23:53:28.586Z,29.93
2022-08-14T23:56:30.491Z,29.93
2022-08-14T23:59:08.084Z,29.93
